sensor_id;sensor_type;location;lat;lon;timestamp;noise_LAeq;noise_LA_min;noise_LA_max;noise_LA01;noise_LA95
79200;Laerm;68628;48.714;9.472;2023-08-30T00:01:22;50.66;50.03;51.33;;
79200;Laerm;68628;48.714;9.472;2023-08-30T00:03:48;50.67;49.96;51.39;;
79200;Laerm;68628;48.714;9.472;2023-08-30T00:06:13;50.65;49.97;51.43;;
79200;Laerm;68628;48.714;9.472;2023-08-30T00:08:38;50.67;49.97;51.74;;
79200;Laerm;68628;48.714;9.472;2023-08-30T00:11:04;50.76;49.86;51.91;;
79200;Laerm;68628;48.714;9.472;2023-08-30T00:13:30;50.71;50.03;52.51;;
79200;Laerm;68628;48.714;9.472;2023-08-30T00:15:57;50.70;49.92;52.67;;
79200;Laerm;68628;48.714;9.472;2023-08-30T00:18:23;50.66;50.00;52.35;;
79200;Laerm;68628;48.714;9.472;2023-08-30T00:20:48;50.65;49.98;51.76;;
79200;Laerm;68628;48.714;9.472;2023-08-30T00:23:14;50.62;49.89;51.22;;
79200;Laerm;68628;48.714;9.472;2023-08-30T00:25:40;50.56;49.89;51.31;;
79200;Laerm;68628;48.714;9.472;2023-08-30T00:28:05;50.68;50.01;51.41;;
79200;Laerm;68628;48.714;9.472;2023-08-30T00:30:31;50.63;49.83;51.25;;
79200;Laerm;68628;48.714;9.472;2023-08-30T00:32:57;50.70;50.00;52.03;;
79200;Laerm;68628;48.714;9.472;2023-08-30T00:35:22;50.76;49.97;52.28;;
79200;Laerm;68628;48.714;9.472;2023-08-30T00:37:48;50.69;50.00;51.29;;
79200;Laerm;68628;48.714;9.472;2023-08-30T00:40:13;50.60;49.95;51.14;;
79200;Laerm;68628;48.714;9.472;2023-08-30T00:42:38;50.71;49.98;51.39;;
79200;Laerm;68628;48.714;9.472;2023-08-30T00:45:06;50.91;50.24;51.90;;
79200;Laerm;68628;48.714;9.472;2023-08-30T00:47:33;50.89;50.21;51.56;;
79200;Laerm;68628;48.714;9.472;2023-08-30T00:50:00;50.80;50.01;51.55;;
79200;Laerm;68628;48.714;9.472;2023-08-30T00:52:26;50.79;50.01;51.34;;
79200;Laerm;68628;48.714;9.472;2023-08-30T00:54:52;50.77;50.10;51.38;;
79200;Laerm;68628;48.714;9.472;2023-08-30T00:57:17;50.75;50.15;51.33;;
79200;Laerm;68628;48.714;9.472;2023-08-30T00:59:43;50.76;49.71;51.39;;
79200;Laerm;68628;48.714;9.472;2023-08-30T01:02:09;50.77;49.95;51.36;;
79200;Laerm;68628;48.714;9.472;2023-08-30T01:04:34;50.81;50.01;51.48;;
79200;Laerm;68628;48.714;9.472;2023-08-30T01:07:00;50.90;50.19;51.59;;
79200;Laerm;68628;48.714;9.472;2023-08-30T01:09:26;50.87;50.08;51.84;;
79200;Laerm;68628;48.714;9.472;2023-08-30T01:12:26;50.80;50.02;51.37;;
79200;Laerm;68628;48.714;9.472;2023-08-30T01:15:03;50.79;50.07;51.51;;
79200;Laerm;68628;48.714;9.472;2023-08-30T01:17:32;50.80;49.99;51.40;;
79200;Laerm;68628;48.714;9.472;2023-08-30T01:20:01;50.80;50.05;51.71;;
79200;Laerm;68628;48.714;9.472;2023-08-30T01:27:55;50.82;49.92;51.59;;
79200;Laerm;68628;48.714;9.472;2023-08-30T01:30:23;50.78;49.95;51.44;;
79200;Laerm;68628;48.714;9.472;2023-08-30T01:32:51;50.80;50.12;51.92;;
79200;Laerm;68628;48.714;9.472;2023-08-30T01:35:18;50.83;49.91;51.44;;
79200;Laerm;68628;48.714;9.472;2023-08-30T01:37:46;50.80;50.17;51.40;;
79200;Laerm;68628;48.714;9.472;2023-08-30T01:40:15;50.79;49.90;51.77;;
79200;Laerm;68628;48.714;9.472;2023-08-30T01:42:43;50.78;49.97;51.42;;
79200;Laerm;68628;48.714;9.472;2023-08-30T01:45:14;50.94;50.19;52.08;;
79200;Laerm;68628;48.714;9.472;2023-08-30T01:47:45;50.85;50.15;51.63;;
79200;Laerm;68628;48.714;9.472;2023-08-30T01:50:15;50.81;50.22;51.38;;
79200;Laerm;68628;48.714;9.472;2023-08-30T01:52:41;50.83;50.23;51.46;;
79200;Laerm;68628;48.714;9.472;2023-08-30T01:55:09;50.83;50.05;51.62;;
79200;Laerm;68628;48.714;9.472;2023-08-30T01:57:35;50.76;50.16;51.53;;
79200;Laerm;68628;48.714;9.472;2023-08-30T02:00:01;50.77;49.87;51.40;;
79200;Laerm;68628;48.714;9.472;2023-08-30T02:02:30;51.57;50.35;53.64;;
79200;Laerm;68628;48.714;9.472;2023-08-30T02:04:55;50.81;49.97;52.34;;
79200;Laerm;68628;48.714;9.472;2023-08-30T02:07:29;50.75;50.13;51.35;;
79200;Laerm;68628;48.714;9.472;2023-08-30T02:10:01;50.76;49.93;51.37;;
79200;Laerm;68628;48.714;9.472;2023-08-30T02:12:37;50.72;49.79;51.49;;
79200;Laerm;68628;48.714;9.472;2023-08-30T02:15:07;50.65;49.83;51.37;;
79200;Laerm;68628;48.714;9.472;2023-08-30T02:17:35;50.68;49.85;51.29;;
79200;Laerm;68628;48.714;9.472;2023-08-30T02:20:02;50.71;50.00;51.45;;
79200;Laerm;68628;48.714;9.472;2023-08-30T02:22:30;50.81;49.97;52.30;;
79200;Laerm;68628;48.714;9.472;2023-08-30T02:24:56;50.72;49.97;51.65;;
79200;Laerm;68628;48.714;9.472;2023-08-30T02:27:23;50.71;49.96;52.19;;
79200;Laerm;68628;48.714;9.472;2023-08-30T02:29:48;50.62;49.88;51.22;;
79200;Laerm;68628;48.714;9.472;2023-08-30T02:32:14;50.70;50.09;51.51;;
79200;Laerm;68628;48.714;9.472;2023-08-30T02:34:43;50.69;50.11;51.57;;
79200;Laerm;68628;48.714;9.472;2023-08-30T02:37:09;50.70;49.89;51.49;;
79200;Laerm;68628;48.714;9.472;2023-08-30T02:39:35;50.76;49.93;51.95;;
79200;Laerm;68628;48.714;9.472;2023-08-30T02:42:00;50.65;49.98;51.68;;
79200;Laerm;68628;48.714;9.472;2023-08-30T02:44:26;50.69;49.99;51.50;;
79200;Laerm;68628;48.714;9.472;2023-08-30T02:46:51;50.75;49.94;53.01;;
79200;Laerm;68628;48.714;9.472;2023-08-30T02:49:17;50.72;50.05;51.59;;
79200;Laerm;68628;48.714;9.472;2023-08-30T02:51:45;50.66;49.87;51.34;;
79200;Laerm;68628;48.714;9.472;2023-08-30T02:54:10;50.72;49.78;51.35;;
79200;Laerm;68628;48.714;9.472;2023-08-30T02:56:45;50.70;50.09;51.46;;
79200;Laerm;68628;48.714;9.472;2023-08-30T02:59:11;50.72;50.10;51.40;;
79200;Laerm;68628;48.714;9.472;2023-08-30T03:01:37;50.73;50.12;51.38;;
79200;Laerm;68628;48.714;9.472;2023-08-30T03:04:05;50.75;50.05;51.35;;
79200;Laerm;68628;48.714;9.472;2023-08-30T03:06:33;50.72;49.88;51.25;;
79200;Laerm;68628;48.714;9.472;2023-08-30T03:08:58;50.75;49.90;51.41;;
79200;Laerm;68628;48.714;9.472;2023-08-30T03:11:24;50.85;50.15;51.46;;
79200;Laerm;68628;48.714;9.472;2023-08-30T03:13:50;50.93;50.30;51.59;;
79200;Laerm;68628;48.714;9.472;2023-08-30T03:16:19;50.83;50.06;52.31;;
79200;Laerm;68628;48.714;9.472;2023-08-30T03:18:48;50.85;49.91;51.72;;
79200;Laerm;68628;48.714;9.472;2023-08-30T03:21:18;51.30;50.18;52.60;;
79200;Laerm;68628;48.714;9.472;2023-08-30T03:23:48;51.79;50.84;52.54;;
79200;Laerm;68628;48.714;9.472;2023-08-30T03:26:22;51.05;49.78;53.73;;
79200;Laerm;68628;48.714;9.472;2023-08-30T03:28:51;50.61;49.95;53.60;;
79200;Laerm;68628;48.714;9.472;2023-08-30T03:31:20;50.72;49.90;51.48;;
79200;Laerm;68628;48.714;9.472;2023-08-30T03:33:52;50.76;49.93;51.58;;
79200;Laerm;68628;48.714;9.472;2023-08-30T03:36:32;51.02;50.12;57.37;;
79200;Laerm;68628;48.714;9.472;2023-08-30T03:39:07;50.93;49.75;53.31;;
79200;Laerm;68628;48.714;9.472;2023-08-30T03:41:44;50.66;49.99;51.51;;
79200;Laerm;68628;48.714;9.472;2023-08-30T03:44:24;50.66;49.95;51.39;;
79200;Laerm;68628;48.714;9.472;2023-08-30T03:46:57;50.63;49.92;51.44;;
79200;Laerm;68628;48.714;9.472;2023-08-30T03:49:31;50.65;49.91;52.06;;
79200;Laerm;68628;48.714;9.472;2023-08-30T03:51:56;50.64;49.95;51.42;;
79200;Laerm;68628;48.714;9.472;2023-08-30T03:54:22;50.61;49.68;51.55;;
79200;Laerm;68628;48.714;9.472;2023-08-30T03:56:53;50.65;49.74;52.82;;
79200;Laerm;68628;48.714;9.472;2023-08-30T03:59:21;50.67;49.83;53.90;;
79200;Laerm;68628;48.714;9.472;2023-08-30T04:01:49;50.65;49.94;51.47;;
79200;Laerm;68628;48.714;9.472;2023-08-30T04:04:15;50.57;49.85;51.18;;
79200;Laerm;68628;48.714;9.472;2023-08-30T04:06:44;50.61;49.92;51.36;;
79200;Laerm;68628;48.714;9.472;2023-08-30T04:09:10;50.65;49.94;51.29;;
79200;Laerm;68628;48.714;9.472;2023-08-30T04:11:35;50.63;49.87;52.58;;
79200;Laerm;68628;48.714;9.472;2023-08-30T04:14:01;50.69;49.87;51.99;;
79200;Laerm;68628;48.714;9.472;2023-08-30T04:16:30;50.84;50.03;52.45;;
79200;Laerm;68628;48.714;9.472;2023-08-30T04:18:55;50.78;50.03;52.65;;
79200;Laerm;68628;48.714;9.472;2023-08-30T04:21:21;50.77;50.01;51.83;;
79200;Laerm;68628;48.714;9.472;2023-08-30T04:23:52;50.66;49.85;51.54;;
79200;Laerm;68628;48.714;9.472;2023-08-30T04:26:18;50.63;49.97;51.23;;
79200;Laerm;68628;48.714;9.472;2023-08-30T04:28:46;50.71;49.98;51.38;;
79200;Laerm;68628;48.714;9.472;2023-08-30T04:31:12;50.71;49.92;51.48;;
79200;Laerm;68628;48.714;9.472;2023-08-30T04:33:37;50.77;49.98;51.74;;
79200;Laerm;68628;48.714;9.472;2023-08-30T04:36:11;50.65;49.96;51.53;;
79200;Laerm;68628;48.714;9.472;2023-08-30T04:38:38;50.64;49.73;51.25;;
79200;Laerm;68628;48.714;9.472;2023-08-30T04:41:06;50.61;49.85;52.71;;
79200;Laerm;68628;48.714;9.472;2023-08-30T04:43:32;50.59;49.82;51.42;;
79200;Laerm;68628;48.714;9.472;2023-08-30T04:45:57;50.67;49.76;51.36;;
79200;Laerm;68628;48.714;9.472;2023-08-30T04:48:26;50.71;50.02;51.34;;
79200;Laerm;68628;48.714;9.472;2023-08-30T04:51:02;50.72;50.05;51.36;;
79200;Laerm;68628;48.714;9.472;2023-08-30T04:53:38;50.67;49.95;51.39;;
79200;Laerm;68628;48.714;9.472;2023-08-30T04:56:13;50.64;49.90;51.47;;
79200;Laerm;68628;48.714;9.472;2023-08-30T04:58:52;50.70;49.98;51.51;;
79200;Laerm;68628;48.714;9.472;2023-08-30T05:01:19;50.64;49.73;51.28;;
79200;Laerm;68628;48.714;9.472;2023-08-30T05:03:45;50.64;49.84;51.75;;
79200;Laerm;68628;48.714;9.472;2023-08-30T05:06:23;50.66;49.92;51.68;;
79200;Laerm;68628;48.714;9.472;2023-08-30T05:08:55;50.70;50.00;51.57;;
79200;Laerm;68628;48.714;9.472;2023-08-30T05:11:26;50.78;49.93;51.98;;
79200;Laerm;68628;48.714;9.472;2023-08-30T05:13:51;50.61;49.86;51.38;;
79200;Laerm;68628;48.714;9.472;2023-08-30T05:16:27;50.67;49.88;51.22;;
79200;Laerm;68628;48.714;9.472;2023-08-30T05:18:55;50.65;49.92;51.31;;
79200;Laerm;68628;48.714;9.472;2023-08-30T05:21:27;50.77;50.05;51.61;;
79200;Laerm;68628;48.714;9.472;2023-08-30T05:23:58;50.74;50.07;51.55;;
79200;Laerm;68628;48.714;9.472;2023-08-30T05:26:24;50.77;50.06;51.91;;
79200;Laerm;68628;48.714;9.472;2023-08-30T05:28:53;50.62;49.85;51.30;;
79200;Laerm;68628;48.714;9.472;2023-08-30T05:31:18;50.70;50.00;51.30;;
79200;Laerm;68628;48.714;9.472;2023-08-30T05:33:46;50.66;49.93;51.26;;
79200;Laerm;68628;48.714;9.472;2023-08-30T05:36:17;50.66;50.03;51.34;;
79200;Laerm;68628;48.714;9.472;2023-08-30T05:38:43;50.68;50.04;51.27;;
79200;Laerm;68628;48.714;9.472;2023-08-30T05:41:11;50.74;49.89;51.45;;
79200;Laerm;68628;48.714;9.472;2023-08-30T05:43:44;50.72;50.09;51.43;;
79200;Laerm;68628;48.714;9.472;2023-08-30T05:46:17;50.65;49.88;51.31;;
79200;Laerm;68628;48.714;9.472;2023-08-30T05:48:43;50.65;49.94;51.96;;
79200;Laerm;68628;48.714;9.472;2023-08-30T05:51:21;50.88;50.03;51.59;;
79200;Laerm;68628;48.714;9.472;2023-08-30T05:53:49;50.77;49.98;51.83;;
79200;Laerm;68628;48.714;9.472;2023-08-30T05:56:15;50.70;50.00;51.47;;
79200;Laerm;68628;48.714;9.472;2023-08-30T05:58:42;50.79;50.15;51.48;;
79200;Laerm;68628;48.714;9.472;2023-08-30T06:01:07;50.89;50.10;52.17;;
79200;Laerm;68628;48.714;9.472;2023-08-30T06:03:35;51.27;50.20;52.28;;
79200;Laerm;68628;48.714;9.472;2023-08-30T06:06:04;50.75;49.84;52.06;;
79200;Laerm;68628;48.714;9.472;2023-08-30T06:08:30;50.80;50.20;51.53;;
79200;Laerm;68628;48.714;9.472;2023-08-30T06:10:55;50.71;49.87;51.30;;
79200;Laerm;68628;48.714;9.472;2023-08-30T06:13:27;50.71;50.03;51.54;;
79200;Laerm;68628;48.714;9.472;2023-08-30T06:16:03;50.70;50.13;51.25;;
79200;Laerm;68628;48.714;9.472;2023-08-30T06:18:30;50.69;49.99;51.35;;
79200;Laerm;68628;48.714;9.472;2023-08-30T06:20:59;50.68;50.06;51.39;;
79200;Laerm;68628;48.714;9.472;2023-08-30T06:23:29;50.68;50.05;52.06;;
79200;Laerm;68628;48.714;9.472;2023-08-30T06:26:17;50.60;49.84;51.29;;
79200;Laerm;68628;48.714;9.472;2023-08-30T06:28:42;50.56;49.76;51.15;;
79200;Laerm;68628;48.714;9.472;2023-08-30T06:31:10;50.60;49.78;51.14;;
79200;Laerm;68628;48.714;9.472;2023-08-30T06:33:48;50.57;49.97;51.81;;
79200;Laerm;68628;48.714;9.472;2023-08-30T06:36:16;50.58;49.75;51.46;;
79200;Laerm;68628;48.714;9.472;2023-08-30T06:38:51;50.63;49.81;52.65;;
79200;Laerm;68628;48.714;9.472;2023-08-30T06:41:19;50.64;49.74;51.23;;
79200;Laerm;68628;48.714;9.472;2023-08-30T06:43:57;50.71;49.99;51.39;;
79200;Laerm;68628;48.714;9.472;2023-08-30T06:46:26;50.79;50.12;53.04;;
79200;Laerm;68628;48.714;9.472;2023-08-30T06:48:57;50.68;50.00;51.49;;
79200;Laerm;68628;48.714;9.472;2023-08-30T06:51:27;50.70;50.05;51.34;;
79200;Laerm;68628;48.714;9.472;2023-08-30T06:54:15;50.72;50.05;52.54;;
79200;Laerm;68628;48.714;9.472;2023-08-30T06:56:59;50.71;49.92;52.10;;
79200;Laerm;68628;48.714;9.472;2023-08-30T06:59:26;50.70;49.95;52.29;;
79200;Laerm;68628;48.714;9.472;2023-08-30T07:01:59;50.76;49.99;52.14;;
79200;Laerm;68628;48.714;9.472;2023-08-30T07:04:30;50.72;50.04;54.52;;
79200;Laerm;68628;48.714;9.472;2023-08-30T07:06:58;50.75;50.08;51.89;;
79200;Laerm;68628;48.714;9.472;2023-08-30T07:09:34;50.65;50.02;51.35;;
79200;Laerm;68628;48.714;9.472;2023-08-30T07:12:14;50.65;49.95;51.22;;
79200;Laerm;68628;48.714;9.472;2023-08-30T07:14:40;50.67;49.97;52.17;;
79200;Laerm;68628;48.714;9.472;2023-08-30T07:17:07;50.66;49.94;51.20;;
79200;Laerm;68628;48.714;9.472;2023-08-30T07:19:42;50.72;50.00;51.42;;
79200;Laerm;68628;48.714;9.472;2023-08-30T07:22:20;50.99;49.99;52.41;;
79200;Laerm;68628;48.714;9.472;2023-08-30T07:24:53;50.56;49.75;51.09;;
79200;Laerm;68628;48.714;9.472;2023-08-30T07:27:18;50.57;49.85;51.19;;
79200;Laerm;68628;48.714;9.472;2023-08-30T07:29:47;50.60;49.87;52.29;;
79200;Laerm;68628;48.714;9.472;2023-08-30T07:32:13;50.62;49.81;51.68;;
79200;Laerm;68628;48.714;9.472;2023-08-30T07:34:43;50.75;49.95;51.88;;
79200;Laerm;68628;48.714;9.472;2023-08-30T07:37:21;50.95;50.15;51.76;;
79200;Laerm;68628;48.714;9.472;2023-08-30T07:40:09;51.06;50.27;52.42;;
79200;Laerm;68628;48.714;9.472;2023-08-30T07:45:58;51.35;50.18;53.29;;
79200;Laerm;68628;48.714;9.472;2023-08-30T07:48:27;50.71;50.01;51.70;;
79200;Laerm;68628;48.714;9.472;2023-08-30T07:50:56;50.74;49.86;51.38;;
79200;Laerm;68628;48.714;9.472;2023-08-30T07:53:22;50.62;49.84;52.02;;
79200;Laerm;68628;48.714;9.472;2023-08-30T07:55:48;51.16;49.98;54.04;;
79200;Laerm;68628;48.714;9.472;2023-08-30T07:58:45;51.14;50.09;52.42;;
79200;Laerm;68628;48.714;9.472;2023-08-30T08:01:13;50.72;50.05;52.60;;
79200;Laerm;68628;48.714;9.472;2023-08-30T08:03:41;50.74;50.04;51.89;;
79200;Laerm;68628;48.714;9.472;2023-08-30T08:06:09;50.63;49.77;51.35;;
79200;Laerm;68628;48.714;9.472;2023-08-30T08:08:38;50.96;50.07;52.56;;
79200;Laerm;68628;48.714;9.472;2023-08-30T08:11:12;52.20;50.25;54.67;;
79200;Laerm;68628;48.714;9.472;2023-08-30T08:13:43;53.53;50.19;56.25;;
79200;Laerm;68628;48.714;9.472;2023-08-30T08:16:14;53.74;50.26;56.17;;
79200;Laerm;68628;48.714;9.472;2023-08-30T08:18:52;51.04;50.14;52.43;;
79200;Laerm;68628;48.714;9.472;2023-08-30T08:21:35;51.09;50.12;53.19;;
79200;Laerm;68628;48.714;9.472;2023-08-30T08:24:15;50.58;49.94;51.39;;
79200;Laerm;68628;48.714;9.472;2023-08-30T08:26:56;51.73;50.12;54.59;;
79200;Laerm;68628;48.714;9.472;2023-08-30T08:29:54;50.77;49.97;52.97;;
79200;Laerm;68628;48.714;9.472;2023-08-30T08:32:50;51.21;50.03;56.37;;
79200;Laerm;68628;48.714;9.472;2023-08-30T08:36:11;51.02;49.99;54.29;;
79200;Laerm;68628;48.714;9.472;2023-08-30T08:39:05;50.68;49.75;53.15;;
79200;Laerm;68628;48.714;9.472;2023-08-30T08:45:19;51.32;50.14;55.40;;
79200;Laerm;68628;48.714;9.472;2023-08-30T08:54:23;52.27;50.02;57.54;;
79200;Laerm;68628;48.714;9.472;2023-08-30T08:57:47;53.08;49.77;58.33;;
79200;Laerm;68628;48.714;9.472;2023-08-30T09:04:31;50.58;49.81;53.98;;
79200;Laerm;68628;48.714;9.472;2023-08-30T09:14:57;50.68;49.67;54.65;;
79200;Laerm;68628;48.714;9.472;2023-08-30T09:32:20;50.56;49.91;52.45;;
79200;Laerm;68628;48.714;9.472;2023-08-30T09:35:05;50.52;49.87;52.28;;
79200;Laerm;68628;48.714;9.472;2023-08-30T09:38:01;50.58;49.91;51.40;;
79200;Laerm;68628;48.714;9.472;2023-08-30T09:41:07;51.19;50.07;55.67;;
79200;Laerm;68628;48.714;9.472;2023-08-30T09:44:05;50.63;49.61;53.18;;
79200;Laerm;68628;48.714;9.472;2023-08-30T09:50:27;50.94;49.93;53.15;;
79200;Laerm;68628;48.714;9.472;2023-08-30T09:53:47;50.53;49.75;52.05;;
79200;Laerm;68628;48.714;9.472;2023-08-30T09:56:38;50.90;49.73;54.15;;
79200;Laerm;68628;48.714;9.472;2023-08-30T10:02:35;50.89;49.65;52.43;;
79200;Laerm;68628;48.714;9.472;2023-08-30T10:05:30;51.14;49.93;54.84;;
79200;Laerm;68628;48.714;9.472;2023-08-30T10:08:09;54.00;50.25;65.97;;
79200;Laerm;68628;48.714;9.472;2023-08-30T10:10:49;51.83;49.87;56.54;;
79200;Laerm;68628;48.714;9.472;2023-08-30T10:13:38;56.49;50.07;61.65;;
79200;Laerm;68628;48.714;9.472;2023-08-30T10:16:18;54.88;50.05;59.55;;
79200;Laerm;68628;48.714;9.472;2023-08-30T10:19:02;51.66;49.69;58.71;;
79200;Laerm;68628;48.714;9.472;2023-08-30T10:21:44;52.64;49.90;61.01;;
79200;Laerm;68628;48.714;9.472;2023-08-30T10:24:16;51.29;50.09;55.46;;
79200;Laerm;68628;48.714;9.472;2023-08-30T10:26:45;50.97;49.81;53.72;;
79200;Laerm;68628;48.714;9.472;2023-08-30T10:29:17;51.62;49.51;59.06;;
79200;Laerm;68628;48.714;9.472;2023-08-30T10:31:43;53.00;50.31;60.19;;
79200;Laerm;68628;48.714;9.472;2023-08-30T10:34:16;53.16;50.09;58.44;;
79200;Laerm;68628;48.714;9.472;2023-08-30T10:36:56;52.42;49.98;59.71;;
79200;Laerm;68628;48.714;9.472;2023-08-30T10:39:33;51.51;50.07;59.04;;
79200;Laerm;68628;48.714;9.472;2023-08-30T10:42:08;52.39;50.26;58.11;;
79200;Laerm;68628;48.714;9.472;2023-08-30T10:44:34;52.52;49.91;60.62;;
79200;Laerm;68628;48.714;9.472;2023-08-30T10:47:02;51.97;49.80;58.10;;
79200;Laerm;68628;48.714;9.472;2023-08-30T10:49:39;51.93;49.69;56.97;;
79200;Laerm;68628;48.714;9.472;2023-08-30T10:52:04;51.66;49.86;55.89;;
79200;Laerm;68628;48.714;9.472;2023-08-30T10:54:37;51.46;50.38;52.77;;
79200;Laerm;68628;48.714;9.472;2023-08-30T10:57:04;51.40;49.92;55.25;;
79200;Laerm;68628;48.714;9.472;2023-08-30T10:59:29;51.99;49.58;57.67;;
79200;Laerm;68628;48.714;9.472;2023-08-30T11:01:55;55.49;49.87;62.36;;
79200;Laerm;68628;48.714;9.472;2023-08-30T11:04:23;54.21;50.81;59.80;;
79200;Laerm;68628;48.714;9.472;2023-08-30T11:06:51;52.65;50.73;57.66;;
79200;Laerm;68628;48.714;9.472;2023-08-30T11:09:23;54.01;50.53;61.84;;
79200;Laerm;68628;48.714;9.472;2023-08-30T11:11:50;57.04;50.55;62.67;;
79200;Laerm;68628;48.714;9.472;2023-08-30T11:14:24;58.16;50.95;66.65;;
79200;Laerm;68628;48.714;9.472;2023-08-30T11:16:52;54.69;50.15;63.48;;
79200;Laerm;68628;48.714;9.472;2023-08-30T11:19:17;52.38;50.08;62.29;;
79200;Laerm;68628;48.714;9.472;2023-08-30T11:21:44;52.83;50.14;55.93;;
79200;Laerm;68628;48.714;9.472;2023-08-30T11:24:14;54.39;51.71;58.87;;
79200;Laerm;68628;48.714;9.472;2023-08-30T11:26:40;53.27;51.45;55.84;;
79200;Laerm;68628;48.714;9.472;2023-08-30T11:29:09;55.47;51.83;60.97;;
79200;Laerm;68628;48.714;9.472;2023-08-30T11:31:35;56.00;52.06;60.47;;
79200;Laerm;68628;48.714;9.472;2023-08-30T11:34:01;55.09;51.45;57.22;;
79200;Laerm;68628;48.714;9.472;2023-08-30T11:36:29;54.71;51.35;57.84;;
79200;Laerm;68628;48.714;9.472;2023-08-30T11:38:55;53.10;50.56;56.49;;
79200;Laerm;68628;48.714;9.472;2023-08-30T11:41:23;52.52;50.28;59.49;;
79200;Laerm;68628;48.714;9.472;2023-08-30T11:43:49;51.53;50.04;55.59;;
79200;Laerm;68628;48.714;9.472;2023-08-30T11:46:16;53.11;49.91;61.60;;
79200;Laerm;68628;48.714;9.472;2023-08-30T11:48:46;55.64;51.03;69.03;;
79200;Laerm;68628;48.714;9.472;2023-08-30T11:51:18;57.91;50.25;65.15;;
79200;Laerm;68628;48.714;9.472;2023-08-30T11:53:47;55.76;50.50;66.99;;
79200;Laerm;68628;48.714;9.472;2023-08-30T11:56:13;53.93;51.31;59.95;;
79200;Laerm;68628;48.714;9.472;2023-08-30T11:58:39;52.52;50.76;56.63;;
79200;Laerm;68628;48.714;9.472;2023-08-30T12:01:05;57.54;50.89;62.37;;
79200;Laerm;68628;48.714;9.472;2023-08-30T12:03:32;53.08;50.66;56.97;;
79200;Laerm;68628;48.714;9.472;2023-08-30T12:05:58;61.08;50.55;70.32;;
79200;Laerm;68628;48.714;9.472;2023-08-30T12:08:26;58.01;50.72;64.45;;
79200;Laerm;68628;48.714;9.472;2023-08-30T12:10:55;59.12;51.18;67.08;;
79200;Laerm;68628;48.714;9.472;2023-08-30T12:13:22;53.97;50.25;61.16;;
79200;Laerm;68628;48.714;9.472;2023-08-30T12:15:49;59.65;51.16;62.14;;
79200;Laerm;68628;48.714;9.472;2023-08-30T12:18:27;58.35;52.09;62.55;;
79200;Laerm;68628;48.714;9.472;2023-08-30T12:21:04;55.92;51.99;65.62;;
79200;Laerm;68628;48.714;9.472;2023-08-30T12:23:31;54.28;51.08;65.68;;
79200;Laerm;68628;48.714;9.472;2023-08-30T12:28:30;54.93;51.37;59.46;;
79200;Laerm;68628;48.714;9.472;2023-08-30T12:30:59;55.34;52.51;58.90;;
79200;Laerm;68628;48.714;9.472;2023-08-30T12:33:25;54.93;52.24;58.89;;
79200;Laerm;68628;48.714;9.472;2023-08-30T12:35:52;53.68;50.63;59.65;;
79200;Laerm;68628;48.714;9.472;2023-08-30T12:38:18;52.69;50.14;57.60;;
79200;Laerm;68628;48.714;9.472;2023-08-30T12:40:47;52.81;50.24;55.67;;
79200;Laerm;68628;48.714;9.472;2023-08-30T12:43:14;52.97;50.20;58.99;;
79200;Laerm;68628;48.714;9.472;2023-08-30T12:45:41;55.37;51.55;59.54;;
79200;Laerm;68628;48.714;9.472;2023-08-30T12:48:08;55.67;51.32;58.86;;
79200;Laerm;68628;48.714;9.472;2023-08-30T12:50:35;57.15;50.73;61.05;;
79200;Laerm;68628;48.714;9.472;2023-08-30T12:53:02;52.64;50.90;58.61;;
79200;Laerm;68628;48.714;9.472;2023-08-30T12:55:27;52.31;50.53;57.61;;
79200;Laerm;68628;48.714;9.472;2023-08-30T12:57:53;52.56;49.87;55.64;;
79200;Laerm;68628;48.714;9.472;2023-08-30T13:00:40;51.49;50.17;54.38;;
79200;Laerm;68628;48.714;9.472;2023-08-30T13:03:15;51.67;50.46;54.03;;
79200;Laerm;68628;48.714;9.472;2023-08-30T13:05:46;51.63;50.20;55.10;;
79200;Laerm;68628;48.714;9.472;2023-08-30T13:08:11;54.68;50.91;57.00;;
79200;Laerm;68628;48.714;9.472;2023-08-30T13:10:39;54.39;50.65;59.40;;
79200;Laerm;68628;48.714;9.472;2023-08-30T13:13:08;51.26;50.07;52.99;;
79200;Laerm;68628;48.714;9.472;2023-08-30T13:15:34;51.20;49.94;57.49;;
79200;Laerm;68628;48.714;9.472;2023-08-30T13:18:00;51.12;49.75;57.96;;
79200;Laerm;68628;48.714;9.472;2023-08-30T13:20:25;51.23;49.95;55.40;;
79200;Laerm;68628;48.714;9.472;2023-08-30T13:22:51;51.31;49.79;58.41;;
79200;Laerm;68628;48.714;9.472;2023-08-30T13:25:16;51.34;49.92;53.63;;
79200;Laerm;68628;48.714;9.472;2023-08-30T13:27:42;51.62;50.17;53.26;;
79200;Laerm;68628;48.714;9.472;2023-08-30T13:30:11;51.16;50.22;52.93;;
79200;Laerm;68628;48.714;9.472;2023-08-30T13:32:39;51.04;50.05;52.34;;
79200;Laerm;68628;48.714;9.472;2023-08-30T13:35:05;51.41;50.11;58.45;;
79200;Laerm;68628;48.714;9.472;2023-08-30T13:37:30;51.12;50.18;54.27;;
79200;Laerm;68628;48.714;9.472;2023-08-30T13:39:56;50.76;50.08;52.54;;
79200;Laerm;68628;48.714;9.472;2023-08-30T13:42:21;50.65;49.85;53.01;;
79200;Laerm;68628;48.714;9.472;2023-08-30T13:44:51;50.76;50.00;52.05;;
79200;Laerm;68628;48.714;9.472;2023-08-30T13:47:16;51.19;50.14;52.35;;
79200;Laerm;68628;48.714;9.472;2023-08-30T13:49:47;51.77;50.12;59.99;;
79200;Laerm;68628;48.714;9.472;2023-08-30T13:52:13;51.92;50.13;55.88;;
79200;Laerm;68628;48.714;9.472;2023-08-30T13:58:14;53.13;50.05;61.50;;
79200;Laerm;68628;48.714;9.472;2023-08-30T14:00:46;51.06;50.22;53.08;;
79200;Laerm;68628;48.714;9.472;2023-08-30T14:03:14;50.71;50.02;52.37;;
79200;Laerm;68628;48.714;9.472;2023-08-30T14:05:44;50.70;50.08;51.33;;
79200;Laerm;68628;48.714;9.472;2023-08-30T14:08:12;50.91;50.10;54.69;;
79200;Laerm;68628;48.714;9.472;2023-08-30T14:10:37;50.95;50.00;55.91;;
79200;Laerm;68628;48.714;9.472;2023-08-30T14:13:05;50.95;50.18;55.92;;
79200;Laerm;68628;48.714;9.472;2023-08-30T14:15:33;51.03;49.97;54.62;;
79200;Laerm;68628;48.714;9.472;2023-08-30T14:17:58;50.82;50.00;53.94;;
79200;Laerm;68628;48.714;9.472;2023-08-30T14:20:27;51.15;50.12;54.53;;
79200;Laerm;68628;48.714;9.472;2023-08-30T14:22:53;50.93;50.20;52.49;;
79200;Laerm;68628;48.714;9.472;2023-08-30T14:25:20;50.90;50.13;51.60;;
79200;Laerm;68628;48.714;9.472;2023-08-30T14:27:46;50.99;50.19;52.09;;
79200;Laerm;68628;48.714;9.472;2023-08-30T14:30:14;50.98;50.15;52.10;;
79200;Laerm;68628;48.714;9.472;2023-08-30T14:32:40;50.92;50.06;51.77;;
79200;Laerm;68628;48.714;9.472;2023-08-30T14:35:06;51.19;50.49;52.44;;
79200;Laerm;68628;48.714;9.472;2023-08-30T14:37:34;51.14;50.35;52.17;;
79200;Laerm;68628;48.714;9.472;2023-08-30T14:40:04;51.19;50.42;53.39;;
79200;Laerm;68628;48.714;9.472;2023-08-30T14:42:33;51.04;50.14;52.31;;
79200;Laerm;68628;48.714;9.472;2023-08-30T14:45:01;50.96;50.24;52.09;;
79200;Laerm;68628;48.714;9.472;2023-08-30T14:47:29;50.69;49.83;52.18;;
79200;Laerm;68628;48.714;9.472;2023-08-30T14:49:55;50.85;50.11;51.81;;
79200;Laerm;68628;48.714;9.472;2023-08-30T14:52:23;51.09;50.06;52.50;;
79200;Laerm;68628;48.714;9.472;2023-08-30T14:54:51;51.29;50.31;52.50;;
79200;Laerm;68628;48.714;9.472;2023-08-30T14:57:18;51.50;50.29;52.90;;
79200;Laerm;68628;48.714;9.472;2023-08-30T14:59:47;51.34;50.05;52.33;;
79200;Laerm;68628;48.714;9.472;2023-08-30T15:02:14;51.49;50.44;53.10;;